Time;durP1;ratioP1;P1;durP2;ratioP2;P2;SDS_P1;SDS_P2;PMS_P1;PMS_P2;Temp;Humidity;BMP_temperature;BMP_pressure;BME280_temperature;BME280_humidity;BME280_pressure;Samples;Min_cycle;Max_cycle;Signal;HPM_P1;HPM_P2
2023/07/21 00:00:14;;;;;;;4.8;2.8;;;;;;;13.14;86.74;;;;;
2023/07/21 00:11:13;;;;;;;4.8;2.8;;;;;;;13.09;87.16;;;;;
2023/07/21 00:22:14;;;;;;;6.1;3.8;;;;;;;12.99;87.68;;;;;
2023/07/21 00:33:14;;;;;;;6.1;3.8;;;;;;;12.91;89.37;;;;;
2023/07/21 00:44:13;;;;;;;6.1;3.8;;;;;;;12.86;88.71;;;;;
2023/07/21 00:54:14;;;;;;;7.2;3.4;;;;;;;12.8;88.73;;;;;
2023/07/21 01:04:14;;;;;;;7.2;3.4;;;;;;;12.79;88.75;;;;;
2023/07/21 01:15:14;;;;;;;7.2;3.4;;;;;;;12.67;89.22;;;;;
2023/07/21 01:26:14;;;;;;;6.5;3.1;;;;;;;12.57;89.44;;;;;
2023/07/21 01:36:14;;;;;;;6.5;3.1;;;;;;;12.55;90.32;;;;;
2023/07/21 01:46:14;;;;;;;6.5;3.1;;;;;;;12.6;91.2;;;;;
2023/07/21 01:57:14;;;;;;;6.3;3.4;;;;;;;12.75;91.05;;;;;
2023/07/21 02:08:14;;;;;;;6.3;3.4;;;;;;;12.86;90.47;;;;;
2023/07/21 02:18:14;;;;;;;6;3.2;;;;;;;12.96;90.34;;;;;
2023/07/21 02:29:13;;;;;;;6;3.2;;;;;;;12.91;89.45;;;;;
2023/07/21 02:40:14;;;;;;;6;3.2;;;;;;;12.79;89.39;;;;;
2023/07/21 02:50:24;;;;;;;6.3;3;;;;;;;12.79;89.25;;;;;
2023/07/21 03:00:23;;;;;;;6.3;3;;;;;;;12.87;89.1;;;;;
2023/07/21 03:11:23;;;;;;;6.3;3;;;;;;;13;89.11;;;;;
2023/07/21 03:21:23;;;;;;;6.9;3.4;;;;;;;13.15;89.22;;;;;
2023/07/21 03:32:23;;;;;;;6.9;3.4;;;;;;;13.47;88.81;;;;;
2023/07/21 03:43:23;;;;;;;6.9;3.4;;;;;;;13.65;88.97;;;;;
2023/07/21 03:53:23;;;;;;;5.7;3.2;;;;;;;13.79;87.97;;;;;
2023/07/21 04:03:24;;;;;;;5.7;3.2;;;;;;;14.21;87.59;;;;;
2023/07/21 04:14:23;;;;;;;5.7;3.2;;;;;;;14.52;87.66;;;;;
2023/07/21 04:24:23;;;;;;;6.2;3.2;;;;;;;14.7;87.2;;;;;
2023/07/21 04:34:24;;;;;;;6.2;3.2;;;;;;;15.13;86.58;;;;;
2023/07/21 04:45:37;;;;;;;6.2;3.2;;;;;;;15.41;85.82;;;;;
2023/07/21 04:56:26;;;;;;;6.9;3.1;;;;;;;15.62;86.14;;;;;
2023/07/21 05:07:24;;;;;;;6.9;3.1;;;;;;;16.39;84.36;;;;;
2023/07/21 05:18:24;;;;;;;7.6;4.1;;;;;;;16.88;81.78;;;;;
2023/07/21 05:28:24;;;;;;;7.6;4.1;;;;;;;17.3;79.81;;;;;
2023/07/21 05:39:24;;;;;;;7.6;4.1;;;;;;;17.35;78.39;;;;;
2023/07/21 05:49:24;;;;;;;6.8;3.7;;;;;;;17.57;77.02;;;;;
2023/07/21 05:59:24;;;;;;;6.8;3.7;;;;;;;17.74;75.87;;;;;
2023/07/21 06:10:24;;;;;;;6.8;3.7;;;;;;;17.86;71.62;;;;;
2023/07/21 06:20:24;;;;;;;4.8;2.5;;;;;;;18.36;71.13;;;;;
2023/07/21 06:30:24;;;;;;;4.8;2.5;;;;;;;19.33;71.7;;;;;
2023/07/21 06:41:24;;;;;;;4.8;2.5;;;;;;;19.7;66.26;;;;;
2023/07/21 06:51:24;;;;;;;5.9;3.3;;;;;;;19.71;66.76;;;;;
2023/07/21 07:02:24;;;;;;;5.9;3.3;;;;;;;20.16;67.15;;;;;
2023/07/21 07:13:24;;;;;;;5.9;3.3;;;;;;;20.27;67.41;;;;;
2023/07/21 07:23:24;;;;;;;10.1;6.1;;;;;;;20.63;64.94;;;;;
2023/07/21 07:33:24;;;;;;;10.1;6.1;;;;;;;20.67;62.15;;;;;
2023/07/21 07:44:24;;;;;;;10.1;6.1;;;;;;;21.18;62.37;;;;;
2023/07/21 07:54:24;;;;;;;4.7;2.6;;;;;;;21.16;62.98;;;;;
2023/07/21 08:04:25;;;;;;;4.7;2.6;;;;;;;21.59;61.31;;;;;
2023/07/21 08:15:34;;;;;;;4.7;2.6;;;;;;;22.66;58.58;;;;;
2023/07/21 08:26:24;;;;;;;6.2;3.5;;;;;;;22.2;58.99;;;;;
2023/07/21 08:36:24;;;;;;;6.2;3.5;;;;;;;23.05;57.09;;;;;
2023/07/21 08:46:24;;;;;;;8.7;3.9;;;;;;;23.18;58.16;;;;;
2023/07/21 08:57:24;;;;;;;8.7;3.9;;;;;;;23.25;54.1;;;;;
2023/07/21 09:07:24;;;;;;;8.7;3.9;;;;;;;23.88;53.51;;;;;
2023/07/21 09:17:24;;;;;;;4.3;2.1;;;;;;;24.26;50.96;;;;;
2023/07/21 09:28:24;;;;;;;4.3;2.1;;;;;;;25.15;50.25;;;;;
2023/07/21 09:38:24;;;;;;;4.3;2.1;;;;;;;25.22;52.02;;;;;
2023/07/21 09:49:24;;;;;;;4.4;2.3;;;;;;;25.54;50.37;;;;;
2023/07/21 09:59:24;;;;;;;4.4;2.3;;;;;;;25.39;49.45;;;;;
2023/07/21 10:10:24;;;;;;;4.4;2.3;;;;;;;25.49;49.14;;;;;
2023/07/21 10:21:24;;;;;;;4.1;2;;;;;;;25.66;51.23;;;;;
2023/07/21 10:31:24;;;;;;;4.1;2;;;;;;;26.03;47.43;;;;;
2023/07/21 10:41:24;;;;;;;4.1;2;;;;;;;25.93;47.98;;;;;
2023/07/21 10:51:24;;;;;;;4.9;2.2;;;;;;;26.33;44.39;;;;;
2023/07/21 11:02:25;;;;;;;4.9;2.2;;;;;;;26.83;44.31;;;;;
2023/07/21 11:13:24;;;;;;;4.9;2.2;;;;;;;26.67;43.98;;;;;
2023/07/21 11:24:25;;;;;;;4.4;2.2;;;;;;;26.68;42.32;;;;;
2023/07/21 11:35:24;;;;;;;4.4;2.2;;;;;;;26.31;42.6;;;;;
2023/07/21 11:45:24;;;;;;;4.4;2.2;;;;;;;26.32;46.31;;;;;
2023/07/21 11:56:24;;;;;;;4.4;2;;;;;;;26.3;49.48;;;;;
2023/07/21 12:06:24;;;;;;;4.4;2;;;;;;;25.57;48.71;;;;;
2023/07/21 12:16:24;;;;;;;4.4;2;;;;;;;25.48;48.11;;;;;
2023/07/21 12:27:24;;;;;;;5.9;2.8;;;;;;;25.45;50.22;;;;;
2023/07/21 12:37:24;;;;;;;5.9;2.8;;;;;;;25.2;50.94;;;;;
2023/07/21 12:47:24;;;;;;;4.6;2.1;;;;;;;26.1;49.43;;;;;
2023/07/21 12:58:24;;;;;;;4.6;2.1;;;;;;;26.01;49.09;;;;;
2023/07/21 13:09:24;;;;;;;4.6;2.1;;;;;;;25.71;46.96;;;;;
2023/07/21 13:19:24;;;;;;;4.1;2;;;;;;;25.55;49.88;;;;;
2023/07/21 13:30:25;;;;;;;4.1;2;;;;;;;25.61;48.38;;;;;
2023/07/21 13:41:24;;;;;;;4.1;2;;;;;;;25.66;49.83;;;;;
2023/07/21 13:51:24;;;;;;;3.8;2.3;;;;;;;25.29;51.17;;;;;
2023/07/21 14:01:26;;;;;;;3.8;2.3;;;;;;;24.82;52.7;;;;;
2023/07/21 14:12:24;;;;;;;3.8;2.3;;;;;;;24.73;54.43;;;;;
2023/07/21 14:22:24;;;;;;;5.1;2.7;;;;;;;24.34;56.17;;;;;
2023/07/21 14:32:24;;;;;;;5.1;2.7;;;;;;;24.23;56.62;;;;;
2023/07/21 14:43:24;;;;;;;5.1;2.7;;;;;;;24.05;58.14;;;;;
2023/07/21 14:53:24;;;;;;;8.7;2.8;;;;;;;23.85;60.03;;;;;
2023/07/21 15:03:24;;;;;;;8.7;2.8;;;;;;;23.97;59.51;;;;;
2023/07/21 15:14:24;;;;;;;8.7;2.8;;;;;;;24.92;58.67;;;;;
2023/07/21 15:25:24;;;;;;;7.6;2.8;;;;;;;24.94;56.41;;;;;
2023/07/21 15:35:24;;;;;;;7.6;2.8;;;;;;;24.27;56.89;;;;;
2023/07/21 15:45:24;;;;;;;7.6;2.8;;;;;;;24.07;57.67;;;;;
2023/07/21 15:56:24;;;;;;;6.3;2.6;;;;;;;23.42;59.77;;;;;
2023/07/21 16:06:24;;;;;;;6.3;2.6;;;;;;;23.1;61.75;;;;;
2023/07/21 16:17:24;;;;;;;6.3;3.4;;;;;;;22.71;62.68;;;;;
2023/07/21 16:28:25;;;;;;;6.3;3.4;;;;;;;22.65;63.26;;;;;
2023/07/21 16:38:24;;;;;;;6.3;3.4;;;;;;;22.55;64.16;;;;;
2023/07/21 16:48:26;;;;;;;4.9;3.1;;;;;;;22.32;64.23;;;;;
2023/07/21 16:58:24;;;;;;;4.9;3.1;;;;;;;22.07;65.41;;;;;
2023/07/21 17:08:24;;;;;;;4.9;3.1;;;;;;;21.81;66.39;;;;;
2023/07/21 17:18:24;;;;;;;5.7;3.1;;;;;;;21.58;66.85;;;;;
2023/07/21 17:29:24;;;;;;;5.7;3.1;;;;;;;21.37;67.72;;;;;
2023/07/21 17:39:25;;;;;;;5.7;3.1;;;;;;;21.37;67.54;;;;;
2023/07/21 17:50:24;;;;;;;5.9;3.5;;;;;;;21.23;68.51;;;;;
2023/07/21 18:00:25;;;;;;;5.9;3.5;;;;;;;20.98;68.68;;;;;
2023/07/21 18:11:24;;;;;;;5.9;3.5;;;;;;;20.7;69.94;;;;;
2023/07/21 18:22:24;;;;;;;6.1;3.9;;;;;;;20.63;68.69;;;;;
2023/07/21 18:32:24;;;;;;;6.1;3.9;;;;;;;20.41;69.99;;;;;
2023/07/21 18:43:24;;;;;;;6.1;3.9;;;;;;;20.15;70.02;;;;;
2023/07/21 18:54:24;;;;;;;8.4;5.3;;;;;;;19.95;70.29;;;;;
2023/07/21 19:04:25;;;;;;;8.4;5.3;;;;;;;19.67;70.75;;;;;
2023/07/21 19:15:24;;;;;;;8.4;5.3;;;;;;;19.32;71.6;;;;;
2023/07/21 19:26:24;;;;;;;10.5;6.1;;;;;;;18.98;72.61;;;;;
2023/07/21 19:36:25;;;;;;;10.5;6.1;;;;;;;18.75;73.35;;;;;
2023/07/21 19:46:25;;;;;;;10.5;6.1;;;;;;;18.5;74.43;;;;;
2023/07/21 19:57:26;;;;;;;10.2;7;;;;;;;18.21;74.96;;;;;
2023/07/21 20:07:26;;;;;;;10.2;7;;;;;;;18;77.02;;;;;
2023/07/21 20:18:26;;;;;;;61;53.4;;;;;;;17.85;76.96;;;;;
2023/07/21 20:28:26;;;;;;;61;53.4;;;;;;;17.74;78.21;;;;;
2023/07/21 20:38:26;;;;;;;61;53.4;;;;;;;17.64;77.99;;;;;
2023/07/21 20:49:26;;;;;;;12.6;8.6;;;;;;;17.58;78.46;;;;;
2023/07/21 20:59:26;;;;;;;12.6;8.6;;;;;;;17.59;79.89;;;;;
2023/07/21 21:10:26;;;;;;;12.6;8.6;;;;;;;17.62;79.62;;;;;
2023/07/21 21:20:26;;;;;;;9.3;7.4;;;;;;;17.56;81.71;;;;;
2023/07/21 21:30:26;;;;;;;9.3;7.4;;;;;;;17.59;82.09;;;;;
2023/07/21 21:41:26;;;;;;;9.3;7.4;;;;;;;17.74;80.97;;;;;
2023/07/21 21:52:26;;;;;;;9.7;6.9;;;;;;;17.83;81.13;;;;;
2023/07/21 22:02:26;;;;;;;9.7;6.9;;;;;;;17.88;83.22;;;;;
2023/07/21 22:13:26;;;;;;;9.7;6.9;;;;;;;18.04;83.14;;;;;
2023/07/21 22:24:27;;;;;;;10.3;7.3;;;;;;;18.03;83.24;;;;;
2023/07/21 22:34:26;;;;;;;10.3;7.3;;;;;;;18.05;83.44;;;;;
2023/07/21 22:45:27;;;;;;;10.3;7.3;;;;;;;18.05;85.53;;;;;
2023/07/21 22:56:26;;;;;;;12;7.7;;;;;;;18;86.57;;;;;
2023/07/21 23:06:27;;;;;;;12;7.7;;;;;;;18.08;86.97;;;;;
2023/07/21 23:16:27;;;;;;;12;7.7;;;;;;;18.13;87.25;;;;;
2023/07/21 23:27:26;;;;;;;10.6;7.2;;;;;;;18.16;87.48;;;;;
2023/07/21 23:37:27;;;;;;;10.6;7.2;;;;;;;18;87.98;;;;;
2023/07/21 23:47:27;;;;;;;11.3;7.2;;;;;;;17.9;88.28;;;;;
2023/07/21 23:58:26;;;;;;;11.3;7.2;;;;;;;17.94;88.21;;;;;
